createdAt,value
2019-04-25T00:00:38.068Z,18.20
2019-04-25T00:03:07.065Z,18.10
2019-04-25T00:05:36.292Z,18.20
2019-04-25T00:08:05.313Z,18.10
2019-04-25T00:10:33.881Z,18.10
2019-04-25T00:13:03.629Z,18.00
2019-04-25T00:15:32.452Z,17.90
2019-04-25T00:18:02.325Z,17.90
2019-04-25T00:20:32.807Z,18.10
2019-04-25T00:23:08.743Z,18.10
2019-04-25T00:25:38.941Z,17.90
2019-04-25T00:28:08.677Z,17.90
2019-04-25T00:30:37.402Z,18.10
2019-04-25T00:33:06.107Z,18.10
2019-04-25T00:35:34.893Z,18.00
2019-04-25T00:38:03.646Z,17.90
2019-04-25T00:40:32.300Z,17.80
2019-04-25T00:43:01.624Z,17.80
2019-04-25T00:45:31.692Z,17.80
2019-04-25T00:48:04.112Z,17.80
2019-04-25T00:50:31.953Z,17.90
2019-04-25T00:53:01.205Z,17.90
2019-04-25T00:55:31.440Z,18.00
2019-04-25T00:58:03.357Z,17.90
2019-04-25T01:00:51.080Z,17.90
2019-04-25T01:03:27.310Z,18.00
2019-04-25T01:05:55.905Z,17.90
2019-04-25T01:08:25.022Z,17.80
2019-04-25T01:10:54.243Z,17.80
2019-04-25T01:13:22.870Z,17.70
2019-04-25T01:15:52.890Z,17.70
2019-04-25T01:18:23.181Z,17.80
2019-04-25T01:20:53.630Z,17.50
2019-04-25T01:23:23.703Z,17.50
2019-04-25T01:25:53.746Z,17.60
2019-04-25T01:28:24.325Z,17.70
2019-04-25T01:30:54.769Z,17.60
2019-04-25T01:33:23.573Z,17.70
2019-04-25T01:35:56.954Z,17.70
2019-04-25T01:38:27.185Z,17.60
2019-04-25T01:41:14.607Z,17.60
2019-04-25T01:43:49.076Z,17.50
2019-04-25T01:46:18.285Z,17.50
2019-04-25T01:48:46.777Z,17.10
2019-04-25T01:51:15.433Z,17.10
2019-04-25T01:53:44.215Z,17.00
2019-04-25T01:56:13.619Z,17.10
2019-04-25T01:58:43.826Z,17.10
2019-04-25T02:01:14.361Z,17.30
2019-04-25T02:03:44.240Z,17.40
2019-04-25T02:06:13.686Z,17.40
2019-04-25T02:08:43.899Z,17.40
2019-04-25T02:11:16.933Z,17.40
2019-04-25T02:13:45.557Z,17.30
2019-04-25T02:16:14.556Z,17.20
2019-04-25T02:18:43.582Z,17.20
2019-04-25T02:21:13.757Z,17.20
2019-04-25T02:23:44.141Z,17.20
2019-04-25T02:26:17.902Z,17.20
2019-04-25T02:28:43.736Z,17.10
2019-04-25T02:31:18.003Z,17.10
2019-04-25T02:33:44.322Z,17.00
2019-04-25T02:36:15.112Z,16.90
2019-04-25T02:38:44.261Z,16.90
2019-04-25T02:41:14.758Z,16.90
2019-04-25T02:43:45.001Z,16.80
2019-04-25T02:46:31.759Z,16.70
2019-04-25T02:49:04.123Z,16.60
2019-04-25T02:51:34.982Z,16.50
2019-04-25T02:54:06.783Z,16.60
2019-04-25T02:56:38.244Z,16.40
2019-04-25T02:59:07.051Z,16.50
2019-04-25T03:01:34.955Z,16.50
2019-04-25T03:04:08.596Z,16.50
2019-04-25T03:06:35.058Z,16.50
2019-04-25T03:09:06.478Z,16.40
2019-04-25T03:11:35.827Z,16.30
2019-04-25T03:14:08.250Z,16.20
2019-04-25T03:16:36.358Z,16.20
2019-04-25T03:19:18.795Z,16.10
2019-04-25T03:21:49.050Z,16.10
2019-04-25T03:24:17.696Z,16.20
2019-04-25T03:26:46.489Z,16.20
2019-04-25T03:29:15.143Z,16.20
2019-04-25T03:31:44.961Z,16.20
2019-04-25T03:34:19.256Z,16.20
2019-04-25T03:36:44.114Z,16.10
2019-04-25T03:39:14.542Z,16.10
2019-04-25T03:41:43.873Z,16.00
2019-04-25T03:44:13.985Z,16.00
2019-04-25T03:46:43.824Z,16.10
2019-04-25T03:49:13.920Z,16.10
2019-04-25T03:51:43.910Z,16.00
2019-04-25T03:54:14.317Z,15.90
2019-04-25T03:56:53.204Z,15.90
2019-04-25T03:59:14.615Z,15.70
2019-04-25T04:01:43.892Z,15.60
2019-04-25T04:04:15.770Z,15.60
2019-04-25T04:06:44.073Z,15.70
2019-04-25T04:09:14.266Z,15.50
2019-04-25T04:11:43.535Z,15.50
2019-04-25T04:14:12.885Z,15.50
2019-04-25T04:16:44.389Z,15.50
2019-04-25T04:19:14.774Z,15.50
2019-04-25T04:21:45.696Z,15.60
2019-04-25T04:24:18.302Z,15.60
2019-04-25T04:26:48.537Z,15.60
2019-04-25T04:29:17.090Z,15.60
2019-04-25T04:31:45.669Z,15.60
2019-04-25T04:34:15.406Z,15.60
2019-04-25T04:36:46.521Z,15.60
2019-04-25T04:39:16.844Z,15.50
2019-04-25T04:41:44.715Z,15.60
2019-04-25T04:44:14.330Z,15.60
2019-04-25T04:46:43.998Z,15.50
2019-04-25T04:49:14.181Z,15.50
2019-04-25T04:51:44.311Z,15.60
2019-04-25T04:54:14.141Z,15.60
2019-04-25T04:56:43.812Z,15.70
2019-04-25T04:59:14.288Z,15.70
2019-04-25T05:01:59.723Z,15.70
2019-04-25T05:04:39.095Z,15.70
2019-04-25T05:07:09.293Z,15.70
2019-04-25T05:09:37.851Z,15.80
2019-04-25T05:12:06.445Z,15.70
2019-04-25T05:14:34.982Z,15.70
2019-04-25T05:17:04.345Z,15.70
2019-04-25T05:19:33.559Z,15.70
2019-04-25T05:22:03.648Z,15.80
2019-04-25T05:24:33.788Z,15.80
2019-04-25T05:27:03.877Z,15.80
2019-04-25T05:29:33.888Z,15.90
2019-04-25T05:32:04.147Z,16.00
2019-04-25T05:34:34.458Z,16.00
2019-04-25T05:37:03.861Z,16.00
2019-04-25T05:39:33.426Z,15.90
2019-04-25T05:42:14.135Z,15.90
2019-04-25T05:44:44.033Z,15.90
2019-04-25T05:47:13.814Z,15.90
2019-04-25T05:49:44.095Z,15.90
2019-04-25T05:52:13.985Z,16.00
2019-04-25T05:54:44.265Z,16.10
2019-04-25T05:57:13.778Z,16.10
2019-04-25T05:59:43.661Z,16.20
2019-04-25T06:02:13.882Z,16.30
2019-04-25T06:04:43.567Z,16.40
2019-04-25T06:07:12.193Z,16.40
2019-04-25T06:09:44.254Z,16.50
2019-04-25T06:12:14.203Z,16.50
2019-04-25T06:14:43.375Z,16.60
2019-04-25T06:17:16.633Z,16.70
2019-04-25T06:19:46.861Z,16.70
2019-04-25T06:22:20.860Z,16.80
2019-04-25T06:24:51.209Z,16.80
2019-04-25T06:27:22.085Z,16.90
2019-04-25T06:29:59.010Z,16.90
2019-04-25T06:32:24.566Z,16.90
2019-04-25T06:34:54.247Z,16.90
2019-04-25T06:37:24.639Z,17.10
2019-04-25T06:39:53.700Z,17.20
2019-04-25T06:42:23.033Z,17.30
2019-04-25T06:44:56.993Z,17.40
2019-04-25T06:47:34.128Z,17.40
2019-04-25T06:50:04.202Z,17.50
2019-04-25T06:52:35.315Z,17.60
2019-04-25T06:55:03.843Z,17.70
2019-04-25T06:57:33.974Z,17.70
2019-04-25T07:00:04.467Z,17.80
2019-04-25T07:02:35.029Z,17.90
2019-04-25T07:05:05.358Z,18.00
2019-04-25T07:07:35.078Z,18.10
2019-04-25T07:10:05.896Z,18.20
2019-04-25T07:12:35.976Z,18.20
2019-04-25T07:15:09.670Z,18.40
2019-04-25T07:17:38.329Z,18.50
2019-04-25T07:20:11.753Z,18.60
2019-04-25T07:22:40.872Z,18.70
2019-04-25T07:25:13.184Z,18.70
2019-04-25T07:28:00.020Z,18.70
2019-04-25T07:30:43.837Z,18.90
2019-04-25T07:33:11.470Z,18.90
2019-04-25T07:35:40.089Z,18.90
2019-04-25T07:38:08.686Z,18.80
2019-04-25T07:40:37.233Z,18.90
2019-04-25T07:43:06.025Z,19.10
2019-04-25T07:45:36.249Z,19.20
2019-04-25T07:48:05.377Z,19.40
2019-04-25T07:50:35.330Z,19.50
2019-04-25T07:53:05.695Z,19.60
2019-04-25T07:55:36.339Z,19.60
2019-04-25T07:58:04.915Z,19.60
2019-04-25T08:00:35.127Z,19.90
2019-04-25T08:03:04.122Z,19.90
2019-04-25T08:05:35.107Z,20.10
2019-04-25T08:08:03.921Z,20.20
2019-04-25T08:10:35.985Z,20.20
2019-04-25T08:13:04.941Z,20.10
2019-04-25T08:15:50.611Z,20.20
2019-04-25T08:18:19.307Z,20.30
2019-04-25T08:20:48.121Z,20.40
2019-04-25T08:23:17.043Z,20.50
2019-04-25T08:25:45.722Z,20.40
2019-04-25T08:28:14.275Z,20.60
2019-04-25T08:30:43.646Z,20.60
2019-04-25T08:33:13.762Z,20.60
2019-04-25T08:36:03.053Z,20.70
2019-04-25T08:38:13.786Z,20.70
2019-04-25T08:40:43.956Z,20.80
2019-04-25T08:43:14.549Z,20.80
2019-04-25T08:45:44.232Z,21.10
2019-04-25T08:48:13.595Z,21.40
2019-04-25T08:50:44.460Z,21.60
2019-04-25T08:53:13.697Z,21.50
2019-04-25T08:55:45.722Z,21.30
2019-04-25T08:58:21.736Z,21.40
2019-04-25T09:01:00.756Z,21.60
2019-04-25T09:03:42.303Z,21.70
2019-04-25T09:06:13.346Z,21.70
2019-04-25T09:08:45.362Z,21.80
2019-04-25T09:11:13.342Z,21.90
2019-04-25T09:13:43.475Z,21.80
2019-04-25T09:16:13.525Z,22.00
2019-04-25T09:18:44.321Z,22.10
2019-04-25T09:21:13.776Z,22.30
2019-04-25T09:23:43.763Z,22.20
2019-04-25T09:26:14.187Z,22.30
2019-04-25T09:28:45.330Z,22.40
2019-04-25T09:31:13.970Z,22.50
2019-04-25T09:33:45.046Z,22.70
2019-04-25T09:36:14.172Z,22.50
2019-04-25T09:38:46.661Z,22.50
2019-04-25T09:41:15.060Z,22.50
2019-04-25T09:43:45.595Z,22.60
2019-04-25T09:46:24.882Z,23.00
2019-04-25T09:48:57.791Z,23.10
2019-04-25T09:51:35.870Z,23.40
2019-04-25T09:54:09.149Z,23.60
2019-04-25T09:56:39.308Z,24.00
2019-04-25T09:59:26.787Z,24.20
2019-04-25T10:01:48.225Z,24.50
2019-04-25T10:04:16.920Z,24.80
2019-04-25T10:06:46.057Z,25.30
2019-04-25T10:09:15.706Z,25.70
2019-04-25T10:11:45.399Z,26.00
2019-04-25T10:14:29.839Z,26.50
2019-04-25T10:16:59.603Z,26.80
2019-04-25T10:19:28.268Z,26.70
2019-04-25T10:21:56.896Z,26.90
2019-04-25T10:24:25.554Z,27.80
2019-04-25T10:26:54.756Z,28.60
2019-04-25T10:29:23.452Z,28.90
2019-04-25T10:31:51.947Z,29.50
2019-04-25T10:34:20.601Z,30.00
2019-04-25T10:36:49.162Z,31.50
2019-04-25T10:39:17.851Z,33.40
2019-04-25T10:41:47.027Z,34.60
2019-04-25T10:44:16.722Z,36.20
2019-04-25T10:46:46.906Z,35.80
2019-04-25T10:49:15.733Z,36.50
2019-04-25T10:51:45.748Z,37.80
2019-04-25T10:54:14.697Z,37.50
2019-04-25T10:56:45.687Z,37.40
2019-04-25T10:59:14.425Z,36.30
2019-04-25T11:01:45.063Z,36.30
2019-04-25T11:04:15.167Z,36.90
2019-04-25T11:06:45.390Z,37.40
2019-04-25T11:09:18.907Z,37.90
2019-04-25T11:11:48.153Z,37.80
2019-04-25T11:14:16.949Z,37.40
2019-04-25T11:16:46.606Z,37.40
2019-04-25T11:19:15.370Z,38.30
2019-04-25T11:21:45.299Z,38.90
2019-04-25T11:24:14.374Z,38.70
2019-04-25T11:26:47.145Z,39.30
2019-04-25T11:29:13.308Z,39.10
2019-04-25T11:31:47.244Z,38.40
2019-04-25T11:34:17.165Z,38.80
2019-04-25T11:36:46.150Z,39.10
2019-04-25T11:39:32.316Z,39.30
2019-04-25T11:42:01.540Z,37.80
2019-04-25T11:44:30.154Z,37.30
2019-04-25T11:46:58.876Z,37.60
2019-04-25T11:49:27.357Z,36.40
2019-04-25T11:51:56.007Z,35.80
2019-04-25T11:54:24.685Z,35.00
2019-04-25T11:56:54.767Z,37.00
2019-04-25T11:59:23.727Z,36.80
2019-04-25T12:01:54.796Z,37.90
2019-04-25T12:04:23.950Z,39.30
2019-04-25T12:06:53.219Z,40.00
2019-04-25T12:11:58.014Z,39.30
2019-04-25T12:14:26.803Z,37.60
2019-04-25T12:16:56.281Z,38.50
2019-04-25T12:19:35.003Z,39.40
2019-04-25T12:21:56.764Z,39.70
2019-04-25T12:24:25.395Z,39.90
2019-04-25T12:26:55.113Z,38.40
2019-04-25T12:29:24.465Z,38.10
2019-04-25T12:31:54.615Z,38.90
2019-04-25T12:34:24.311Z,39.60
2019-04-25T12:36:54.491Z,39.40
2019-04-25T12:39:24.263Z,40.70
2019-04-25T12:41:54.474Z,39.90
2019-04-25T12:44:36.925Z,38.50
2019-04-25T12:47:25.413Z,38.90
2019-04-25T12:49:54.879Z,38.80
2019-04-25T12:52:24.661Z,38.70
2019-04-25T12:54:54.045Z,39.00
2019-04-25T12:57:24.138Z,40.10
2019-04-25T12:59:55.128Z,40.70
2019-04-25T13:02:23.544Z,40.40
2019-04-25T13:04:52.179Z,40.50
2019-04-25T13:07:20.727Z,39.50
2019-04-25T13:09:52.256Z,40.10
2019-04-25T13:12:20.177Z,39.50
2019-04-25T13:14:48.759Z,39.50
2019-04-25T13:17:17.319Z,39.90
2019-04-25T13:19:45.966Z,39.50
2019-04-25T13:22:14.822Z,39.50
2019-04-25T13:24:43.406Z,39.90
2019-04-25T13:27:23.475Z,40.00
2019-04-25T13:29:57.250Z,39.80
2019-04-25T13:32:36.298Z,38.90
2019-04-25T13:35:15.615Z,38.10
2019-04-25T13:37:44.234Z,37.90
2019-04-25T13:40:13.223Z,38.10
2019-04-25T13:42:43.190Z,37.10
2019-04-25T13:45:14.312Z,35.80
2019-04-25T13:47:42.896Z,35.50
2019-04-25T13:50:12.918Z,35.70
2019-04-25T13:52:43.257Z,35.30
2019-04-25T13:55:13.610Z,34.90
2019-04-25T13:57:42.421Z,33.40
2019-04-25T14:00:11.769Z,32.70
2019-04-25T14:02:40.382Z,33.30
2019-04-25T14:05:09.171Z,33.50
2019-04-25T14:07:37.751Z,33.40
2019-04-25T14:10:06.478Z,32.70
2019-04-25T14:12:35.059Z,32.90
2019-04-25T14:15:05.640Z,32.70
2019-04-25T14:17:35.864Z,32.20
2019-04-25T14:20:07.593Z,32.00
2019-04-25T14:22:36.165Z,31.80
2019-04-25T14:25:05.966Z,31.80
2019-04-25T14:27:34.576Z,31.70
2019-04-25T14:30:03.957Z,31.40
2019-04-25T14:32:33.938Z,31.40
2019-04-25T14:35:03.400Z,31.40
2019-04-25T14:37:38.896Z,30.90
2019-04-25T14:40:03.931Z,30.80
2019-04-25T14:42:33.137Z,30.70
2019-04-25T14:45:01.812Z,30.60
2019-04-25T14:47:30.367Z,30.60
2019-04-25T14:49:58.913Z,30.70
2019-04-25T14:52:28.081Z,30.30
2019-04-25T14:54:58.374Z,30.30
2019-04-25T14:57:29.705Z,30.20
2019-04-25T15:00:01.851Z,30.10
2019-04-25T15:02:30.464Z,30.20
2019-04-25T15:05:18.332Z,29.90
2019-04-25T15:07:46.930Z,29.80
2019-04-25T15:10:15.554Z,29.80
2019-04-25T15:12:44.102Z,29.70
2019-04-25T15:15:12.915Z,29.70
2019-04-25T15:17:46.307Z,29.60
2019-04-25T15:20:11.758Z,29.50
2019-04-25T15:22:40.303Z,29.50
2019-04-25T15:25:08.886Z,29.20
2019-04-25T15:27:37.765Z,29.20
2019-04-25T15:30:08.866Z,29.10
2019-04-25T15:32:37.526Z,29.00
2019-04-25T15:35:08.158Z,29.00
2019-04-25T15:37:38.502Z,29.00
2019-04-25T15:40:09.466Z,29.00
2019-04-25T15:42:42.486Z,28.80
2019-04-25T15:45:29.260Z,28.70
2019-04-25T15:47:58.298Z,28.70
2019-04-25T15:50:27.689Z,28.70
2019-04-25T15:52:56.341Z,28.50
2019-04-25T15:55:24.990Z,28.60
2019-04-25T15:57:53.543Z,28.50
2019-04-25T16:00:27.054Z,28.30
2019-04-25T16:02:55.598Z,28.20
2019-04-25T16:05:24.358Z,28.10
2019-04-25T16:07:52.915Z,28.10
2019-04-25T16:10:21.590Z,28.00
2019-04-25T16:12:50.124Z,28.10
2019-04-25T16:15:18.683Z,28.00
2019-04-25T16:17:47.270Z,27.80
2019-04-25T16:20:15.994Z,27.80
2019-04-25T16:22:44.580Z,27.80
2019-04-25T16:25:13.268Z,27.70
2019-04-25T16:27:41.745Z,27.70
2019-04-25T16:30:10.874Z,27.90
2019-04-25T16:32:39.420Z,27.80
2019-04-25T16:35:08.674Z,27.70
2019-04-25T16:37:37.234Z,27.50
2019-04-25T16:40:06.361Z,27.30
2019-04-25T16:42:35.844Z,27.20
2019-04-25T16:45:06.886Z,27.20
2019-04-25T16:47:35.800Z,27.30
2019-04-25T16:50:06.218Z,27.30
2019-04-25T16:52:35.823Z,27.20
2019-04-25T16:55:08.649Z,27.10
2019-04-25T16:57:37.370Z,27.10
2019-04-25T17:00:09.878Z,27.20
2019-04-25T17:02:41.000Z,27.10
2019-04-25T17:05:09.943Z,26.90
2019-04-25T17:07:38.540Z,26.90
2019-04-25T17:10:08.494Z,26.90
2019-04-25T17:12:37.087Z,26.80
2019-04-25T17:15:25.274Z,26.80
2019-04-25T17:18:13.610Z,26.70
2019-04-25T17:20:50.073Z,26.60
2019-04-25T17:23:18.801Z,26.60
2019-04-25T17:25:47.354Z,26.40
2019-04-25T17:28:16.068Z,26.40
2019-04-25T17:30:46.330Z,26.30
2019-04-25T17:33:19.298Z,26.20
2019-04-25T17:35:58.498Z,26.20
2019-04-25T17:38:40.506Z,26.30
2019-04-25T17:41:09.026Z,26.30
2019-04-25T17:43:38.487Z,26.10
2019-04-25T17:46:10.886Z,26.00
2019-04-25T17:48:39.176Z,25.90
2019-04-25T17:51:07.722Z,25.80
2019-04-25T18:05:58.868Z,25.40
2019-04-25T18:10:55.696Z,25.40
2019-04-25T18:13:24.276Z,25.20
2019-04-25T18:15:54.463Z,25.10
2019-04-25T18:18:33.441Z,25.10
2019-04-25T18:21:02.058Z,25.20
2019-04-25T18:23:38.654Z,25.20
2019-04-25T18:26:14.770Z,25.10
